METAR Data
IDs: Format: Raw Decoded Include TAF

Data at: 0139 UTC 23 Apr 2021

YARG 230100Z AUTO 09011KT 9999 // NCD 30/05 Q1016
YARG 230000Z AUTO 12007KT 9999 // NCD 29/06 Q1016
YARG 222300Z AUTO 00000KT 9999 // NCD 25/08 Q1015
YARG 222200Z AUTO 00000KT 9999 // NCD 22/10 Q1014
YARG 222100Z AUTO 00000KT 9999 // SCT115 22/09 Q1013
YARG 222000Z AUTO 00000KT 9999 // SCT115 23/09 Q1013
YARG 221900Z AUTO 31002KT 9999 // SCT115 23/08 Q1013
YARG 221800Z AUTO 00000KT 9999 // NCD 24/09 Q1013
YARG 221700Z AUTO 00000KT 9999 // SCT110 24/08 Q1013
YARG 221600Z AUTO 12003KT 9999 // SCT110 25/07 Q1013
YARG 221500Z AUTO 10005KT 9999 // SCT110 26/07 Q1013
YARG 221400Z AUTO 12007KT 9999 // NCD 28/07 Q1013
YARG 221300Z AUTO 13006KT 9999 // NCD 29/07 Q1013
YARG 221200Z AUTO 14005KT 9999 // NCD 29/08 Q1013
YARG 221100Z AUTO 17004KT 9999 // SCT110 30/08 Q1013
YARG 221000Z AUTO 16005KT 9999 // NCD 31/08 Q1012
YARG 220900Z AUTO 15006KT 9999 // NCD 33/07 Q1011
YARG 220800Z AUTO 14008KT 9999 // NCD 34/07 Q1010
YARG 220700Z AUTO 16007KT 9999 // NCD 35/06 Q1010
YARG 220600Z AUTO 12007KT 080V160 9999 // NCD 35/06 Q1011
YARG 220500Z AUTO 11009KT 9999 // NCD 34/06 Q1011
YARG 220400Z AUTO 12009KT 9999 // NCD 34/07 Q1012
YARG 220300Z AUTO 13011KT 9999 // NCD 34/07 Q1013
YARG 220200Z AUTO 14009KT 9999 // NCD 32/06 Q1014
YARG 220100Z AUTO 14007KT 9999 // NCD 31/07 Q1014
YARG 220000Z AUTO 12003KT 9999 // NCD 29/08 Q1015
YARG 212300Z AUTO 26001KT 9999 // NCD 27/10 Q1014
YARG 212200Z AUTO 26002KT 9999 // NCD 22/11 Q1013
YARG 212100Z AUTO 26005KT 9999 // NCD 21/12 Q1013
YARG 212000Z AUTO 08002KT 9999 // NCD 22/11 Q1012
YARG 211900Z AUTO 16001KT 9999 // NCD 23/09 Q1012
YARG 211800Z AUTO 19003KT 9999 // NCD 24/10 Q1011
YARG 211700Z AUTO 19005KT 9999 // NCD 26/10 Q1012
YARG 211600Z AUTO 22003KT 9999 // NCD 25/11 Q1013
YARG 211500Z AUTO 16003KT 9999 // NCD 24/12 Q1013
YARG 211400Z AUTO 00000KT 9999 // NCD 26/11 Q1014